King Philippos — 9HA3023 — position and weather

sailwx.info

Track history (hours):
 
Tides and Currents Weather Stations Pressure Air Temp Water Temp Dewpoint Dewpoint Depression Visibility Wind Speed Wind Dir Waves Ship Positions

King Philippos

Last reported at 2016-Sep-19 03:34 UTC. Time now 2016-Sep-28 17:11 UTC.
Position N 35°07' E 139°44'.
Warning: this ship's position is 9 days out of date.

Length 250 m; draft 10 m.

Type: Tanker. MMSI: 229046000.

Date/timePositionNaut miles runAvg speedWind from/ knotsBaromVisibWave heightAir tempDewpointWater temp
2016-Sep-19 03:34N 35°07' E 139°44'1211.5
2016-Sep-19 02:34N 35°19' E 139°43'19 9.4
2016-Sep-19 00:33N 35°32' E 140°00'0 0.0
2016-Sep-18 19:17N 35°32' E 140°00'0 0.1
2016-Sep-18 15:33N 35°32' E 140°00'0 0.2
2016-Sep-18 14:30N 35°32' E 140°00'0 0.0
2016-Sep-18 10:23N 35°32' E 140°00'0 0.1
2016-Sep-18 09:30N 35°32' E 140°00'0 0.0
2016-Sep-18 02:29N 35°32' E 140°00'0 0.1
2016-Sep-18 01:33N 35°32' E 140°00'1 0.8
2016-Sep-18 00:33N 35°31' E 140°00'2 0.8
2016-Sep-17 22:23N 35°30' E 140°01'0 0.0
2016-Sep-17 21:17N 35°30' E 140°01'0 0.0
2016-Sep-17 20:17N 35°30' E 140°01'0 0.0
2016-Sep-17 19:11N 35°30' E 140°01'0 0.0
2016-Sep-17 13:11N 35°30' E 140°01'0 0.0
2016-Sep-17 12:29N 35°30' E 140°01'0 0.0
2016-Sep-17 10:29N 35°30' E 140°01'0 0.0
2016-Sep-17 08:23N 35°30' E 140°01'0 0.0
2016-Sep-17 07:29N 35°30' E 140°01'0 0.0
2016-Sep-17 05:29N 35°30' E 140°01'0 0.0
2016-Sep-17 04:17N 35°30' E 140°01'5 1.2
2016-Sep-17 00:31N 35°33' E 139°57'4 0.6
2016-Sep-16 17:19N 35°31' E 140°02'0 0.0
2016-Sep-16 15:31N 35°31' E 140°02'0 0.0
2016-Sep-16 12:31N 35°31' E 140°02'0 0.0
2016-Sep-16 09:19N 35°31' E 140°02'0 0.0
2016-Sep-16 07:31N 35°31' E 140°02'0 0.0
2016-Sep-16 03:19N 35°31' E 140°02'0 0.0
2016-Sep-16 02:31N 35°31' E 140°02'0 0.0
2016-Sep-16 00:33N 35°31' E 140°02'9 4.3
2016-Sep-15 22:33N 35°28' E 139°52'1211.9
2016-Sep-15 21:33N 35°18' E 139°44'1010.5
2016-Sep-15 20:33N 35°08' E 139°46'16 7.4
2016-Sep-15 18:25N 34°53' E 139°39'  
Track history (hours):
 
Tides and Currents Weather Stations Pressure Air Temp Water Temp Dewpoint Dewpoint Depression Visibility Wind Speed Wind Dir Waves Ship Positions

King Philippos

Last reported at 2016-Sep-19 03:34 UTC. Time now 2016-Sep-28 17:11 UTC.
Position N 35°07' E 139°44'.
Warning: this ship's position is 9 days out of date.

Length 250 m; draft 10 m.

Type: Tanker. MMSI: 229046000.

Date/timePositionNaut miles runAvg speedWind from/ knotsBaromVisibWave heightAir tempDewpointWater temp
2016-Sep-19 03:34N 35°07' E 139°44'1211.5
2016-Sep-19 02:34N 35°19' E 139°43'19 9.4
2016-Sep-19 00:33N 35°32' E 140°00'0 0.0
2016-Sep-18 19:17N 35°32' E 140°00'0 0.1
2016-Sep-18 15:33N 35°32' E 140°00'0 0.2
2016-Sep-18 14:30N 35°32' E 140°00'0 0.0
2016-Sep-18 10:23N 35°32' E 140°00'0 0.1
2016-Sep-18 09:30N 35°32' E 140°00'0 0.0
2016-Sep-18 02:29N 35°32' E 140°00'0 0.1
2016-Sep-18 01:33N 35°32' E 140°00'1 0.8
2016-Sep-18 00:33N 35°31' E 140°00'2 0.8
2016-Sep-17 22:23N 35°30' E 140°01'0 0.0
2016-Sep-17 21:17N 35°30' E 140°01'0 0.0
2016-Sep-17 20:17N 35°30' E 140°01'0 0.0
2016-Sep-17 19:11N 35°30' E 140°01'0 0.0
2016-Sep-17 13:11N 35°30' E 140°01'0 0.0
2016-Sep-17 12:29N 35°30' E 140°01'0 0.0
2016-Sep-17 10:29N 35°30' E 140°01'0 0.0
2016-Sep-17 08:23N 35°30' E 140°01'0 0.0
2016-Sep-17 07:29N 35°30' E 140°01'0 0.0
2016-Sep-17 05:29N 35°30' E 140°01'0 0.0
2016-Sep-17 04:17N 35°30' E 140°01'5 1.2
2016-Sep-17 00:31N 35°33' E 139°57'4 0.6
2016-Sep-16 17:19N 35°31' E 140°02'0 0.0
2016-Sep-16 15:31N 35°31' E 140°02'0 0.0
2016-Sep-16 12:31N 35°31' E 140°02'0 0.0
2016-Sep-16 09:19N 35°31' E 140°02'0 0.0
2016-Sep-16 07:31N 35°31' E 140°02'0 0.0
2016-Sep-16 03:19N 35°31' E 140°02'0 0.0
2016-Sep-16 02:31N 35°31' E 140°02'0 0.0
2016-Sep-16 00:33N 35°31' E 140°02'9 4.3
2016-Sep-15 22:33N 35°28' E 139°52'1211.9
2016-Sep-15 21:33N 35°18' E 139°44'1010.5
2016-Sep-15 20:33N 35°08' E 139°46'16 7.4
2016-Sep-15 18:25N 34°53' E 139°39'  

Dump ship's entire track history